»·PEaware :: N312CF KSNA-KCRQ

N312CF :: KSNA-KCRQ

FLIGHT INFORMATION

Flight Status: Arrived
Operator: Privately registered:
United States
More flights under this callsign
Pilot: Jessica F. (17029)
Aircraft: Unknown
(DA62)
More flights by this aircraft type
Origin: KSNA John Wayne-Orange Co
United States
Destination: KCRQ McClellan-Palomar
United States
More flights between these airports :: More routes between these airports
Route: +V23 OCN
File this flight plan on PilotEdge
Remarks: *** I2 Rating Attempt ***
Altitude:
(Current/Filed)
7,000ft
Speed:
(Current/Filed)
180kts
Departed: 25-Jun-18 07:09 PM
Arrived: 25-Jun-18 07:41 PM
Distance/Time
Traveled:
44nm/0:31
Distance/Time
To Go:
Arrived

Flight Plot

Page will automatically refresh every two minutes.


Map Options




Map Legend


Flown Route
Filed Route
Departure Airport
Arrival Airport
Navaid (VOR, NDB)
Fix

Horizontal Profiles

Position Reports

Time Latitude Longitude Heading Altitude Ground
Speed
25-Jun-18 18:48 33.667171 -117.872134 225 60ft 0kts
25-Jun-18 18:49 33.667171 -117.872134 225 60ft 0kts
25-Jun-18 18:50 33.667171 -117.872134 225 60ft 0kts
25-Jun-18 18:51 33.667171 -117.872134 225 60ft 0kts
25-Jun-18 18:52 33.667171 -117.872134 225 60ft 0kts
25-Jun-18 18:53 33.667171 -117.872134 225 60ft 0kts
25-Jun-18 18:54 33.667171 -117.872134 225 60ft 0kts
25-Jun-18 18:55 33.667171 -117.872134 225 60ft 0kts
25-Jun-18 18:56 33.667171 -117.872134 225 60ft 0kts
25-Jun-18 18:57 33.667171 -117.872134 225 60ft 0kts
25-Jun-18 18:58 33.667171 -117.872134 225 60ft 0kts
25-Jun-18 18:59 33.667171 -117.872134 225 60ft 0kts
25-Jun-18 19:00 33.667171 -117.872134 225 60ft 0kts
25-Jun-18 19:01 33.667171 -117.872134 225 60ft 0kts
25-Jun-18 19:02 33.667171 -117.872134 225 60ft 0kts
25-Jun-18 19:03 33.667171 -117.872134 225 60ft 0kts
25-Jun-18 19:04 33.667171 -117.872134 225 60ft 0kts
25-Jun-18 19:05 33.667171 -117.872134 225 60ft 0kts
25-Jun-18 19:06 33.670037 -117.869946 39 60ft 31kts
25-Jun-18 19:07 33.675690 -117.866067 31 60ft 18kts
25-Jun-18 19:08 33.679922 -117.863614 308 60ft 0kts
25-Jun-18 19:09 33.673786 -117.867978 206 203ft 78kts
25-Jun-18 19:10 33.656539 -117.869565 186 1376ft 60kts
25-Jun-18 19:11 33.636053 -117.870497 186 2382ft 97kts
25-Jun-18 19:12 33.605294 -117.872833 186 3497ft 114kts
25-Jun-18 19:13 33.585115 -117.853304 120 4920ft 105kts
25-Jun-18 19:14 33.565862 -117.811342 120 5006ft 168kts
25-Jun-18 19:15 33.539103 -117.767619 134 5000ft 170kts
25-Jun-18 19:16 33.505817 -117.727388 136 5000ft 170kts
25-Jun-18 19:17 33.472065 -117.687755 136 5000ft 170kts
25-Jun-18 19:18 33.438220 -117.648112 136 5008ft 170kts
25-Jun-18 19:19 33.404288 -117.608429 136 5009ft 171kts
25-Jun-18 19:20 33.370168 -117.568553 136 5000ft 172kts
25-Jun-18 19:21 33.335945 -117.528610 136 5000ft 172kts
25-Jun-18 19:22 33.301737 -117.488719 136 5000ft 172kts
25-Jun-18 19:23 33.267412 -117.448742 136 4882ft 177kts
25-Jun-18 19:24 33.232376 -117.407446 135 4016ft 171kts
25-Jun-18 19:25 33.200561 -117.368427 135 4000ft 164kts
25-Jun-18 19:26 33.190563 -117.320595 71 4000ft 168kts
25-Jun-18 19:27 33.205290 -117.267686 71 3999ft 168kts
25-Jun-18 19:28 33.219899 -117.214897 71 3999ft 167kts
25-Jun-18 19:29 33.234257 -117.162037 71 3999ft 167kts
25-Jun-18 19:30 33.246209 -117.118044 71 3999ft 167kts
25-Jun-18 19:31 33.252905 -117.056771 140 3506ft 158kts
25-Jun-18 19:32 33.215477 -117.037690 161 3515ft 140kts
25-Jun-18 19:33 33.179268 -117.025200 206 3510ft 134kts
25-Jun-18 19:34 33.160683 -117.058214 270 3506ft 129kts
25-Jun-18 19:35 33.157798 -117.093928 261 3444ft 128kts
25-Jun-18 19:36 33.151836 -117.133511 259 2814ft 124kts
25-Jun-18 19:37 33.145883 -117.170742 259 2146ft 111kts
25-Jun-18 19:38 33.140106 -117.206645 259 1497ft 109kts
25-Jun-18 19:39 33.134398 -117.242035 259 880ft 109kts
25-Jun-18 19:40 33.128883 -117.276173 259 298ft 87kts
25-Jun-18 19:41 33.127306 -117.282683 192 298ft 0kts
25-Jun-18 19:42 33.126728 -117.280507 261 298ft 0kts
25-Jun-18 19:43 33.126728 -117.280507 261 298ft 0kts
25-Jun-18 19:44 33.126728 -117.280507 261 298ft 0kts
25-Jun-18 19:45 33.126728 -117.280507 261 298ft 0kts
25-Jun-18 19:46 33.126728 -117.280507 261 298ft 0kts
25-Jun-18 19:47 33.126728 -117.280507 261 298ft 0kts

Navigation Log

Ident Type
Flight plan parsing failed, navigation log unavailable